Aeroporto :
LOGIN :

Iscrizione | Disclaimer

   EN    FR    IT 

 










Sommario :    VFR   VFR Marginale   IFR   IFR Intensivo   IFR Molto Intensivo
Visibilità : 
Base nubi : 
>= 8 km
>= 3000ft
5 / 8 km
1000 / 3000 ft
1500m / 5 km
500 / 1000 ft
800 / 1500m
200 / 500 ft
< 800m
< 200 ft
Simboli :   Temporali  Nebbia  Neve Forte  Precipitazioni Forti  Vento > 20 kt
SIGMETs :   Varie  Temporali  Ghiacco  Turbolenza  Onda orograficha  Ceneri Vulcaniche






- Altitudine del aeroporto : 325 ft
- Codice IATA : BES


LFRB - Brest

ULTIMO METAR :
  • 270000Z AUTO 03008KT CAVOK 12/10 Q1034 NOSIG

METARs OBSOLETI :
  • 262330Z AUTO 03005KT CAVOK 12/09 Q1034 NOSIG
  • 262300Z AUTO 03005KT CAVOK 12/09 Q1034 NOSIG
  • 262230Z AUTO 03006KT CAVOK 12/09 Q1034 NOSIG
  • 262200Z AUTO 03007KT CAVOK 13/09 Q1035 NOSIG
  • 262130Z AUTO 03007KT CAVOK 13/09 Q1035 NOSIG

TAF TAF LFRB
Valido dal 27 a 00 ore il 28 a 06 ore UTC


262300Z 2700/2806 03008KT CAVOK
ATIS : +33 2 98 32 02 71



MetMap, La meteo Aeronautica in un colpo d'occhio ! - Copyright ORBIFLY Dicembre 2007 - Disclaimer

ORBIFLY MET'MAP TEAM :

Programmazione e sviluppo : Alexandra Zaïnal
Concezione : Baudouin d'Aumeries
Aiuto per la programmazione : Marc-Olivier Méhu
Supporto tecnico e logistico : Manuel Goepfert
Aiuto per la traduzione : Arnaldo La Scala

Contatto : metmap@orbifly.com




FONTI E CREDITI :

   NOAA